Terminal Aerodrome Forecast
Issued by NWS

Home | Current Version | Previous Version | Text Only | Print | Product List | Glossary On
Versions: 1 2 3 4 5 6 7 8 9 10 11 12 13 14 15
000
FTUS45 KCYS 232320
TAFRWL
TAF
KRWL 232320Z 2400/2424 25019G27KT P6SM SCT150
     FM240200 30011KT P6SM FEW250
     FM240700 VRB04KT P6SM SKC
     FM242000 27010G20KT P6SM SKC=

USA.gov is the U.S. government's official web portal to all federal, state and local government web resources and services.